Time;durP1;ratioP1;P1;durP2;ratioP2;P2;SDS_P1;SDS_P2;PMS_P1;PMS_P2;Temp;Humidity;BMP_temperature;BMP_pressure;BME280_temperature;BME280_humidity;BME280_pressure;Samples;Min_cycle;Max_cycle;Signal;HPM_P1;HPM_P2
2021/05/14 00:09:53;;;;;;;;;;;;;;;;;;;;;
2021/05/14 01:27:16;;;;;;;;;;;;;;;;;;;;;
2021/05/14 01:38:07;;;;;;;;;;;;;;;;;;;;;
2021/05/14 01:52:28;;;;;;;26.20;23.50;;;12.90;92.60;;;;;;5707211;24;20052;-93
2021/05/14 02:21:09;;;;;;;;;;;;;;;;;;;;;
2021/05/14 02:42:55;;;;;;;;;;;;;;;;;;;;;
2021/05/14 02:53:24;;;;;;;;;;;;;;;;;;;;;
2021/05/14 10:01:35;;;;;;;30.38;27.05;;;14.70;87.10;;;;;;6010065;22;3718970;-81
2021/05/14 10:04:03;;;;;;;28.98;25.85;;;14.70;86.60;;;;;;6153454;23;20016;-82
2021/05/14 10:06:35;;;;;;;28.95;24.63;;;14.70;86.40;;;;;;6154733;23;20005;-82
2021/05/14 10:09:19;;;;;;;;;;;;;;;;;;;;;
2021/05/14 10:11:54;;;;;;;29.80;25.95;;;14.70;83.70;;;;;;6153390;23;20088;-85
2021/05/14 10:14:32;;;;;;;28.35;25.17;;;14.60;82.60;;;;;;6152896;23;20005;-84
2021/05/14 10:17:00;;;;;;;30.27;26.98;;;14.60;82.50;;;;;;6153363;23;20014;-85
2021/05/14 10:19:31;;;;;;;29.98;26.55;;;14.60;82.80;;;;;;6152358;23;20561;-86
2021/05/14 10:21:59;;;;;;;26.17;23.38;;;14.60;83.00;;;;;;6152367;23;20096;-86
2021/05/14 10:24:58;;;;;;;26.60;23.77;;;14.70;83.80;;;;;;6152528;23;20009;-85
2021/05/14 10:27:53;;;;;;;25.50;22.67;;;14.80;85.40;;;;;;6152324;23;20056;-85
2021/05/14 10:30:27;;;;;;;27.98;23.90;;;14.80;84.40;;;;;;6154586;23;20040;-86
2021/05/14 10:33:13;;;;;;;;;;;;;;;;;;;;;
2021/05/14 10:35:53;;;;;;;26.45;23.45;;;14.90;82.50;;;;;;6153850;23;20088;-88
2021/05/14 10:38:42;;;;;;;24.83;21.95;;;14.90;81.80;;;;;;6152489;23;20005;-83
2021/05/14 10:41:28;;;;;;;26.88;23.38;;;14.80;81.00;;;;;;6128814;23;20016;-83
2021/05/14 10:44:16;;;;;;;24.13;20.70;;;14.80;81.80;;;;;;6153542;23;20008;-83
2021/05/14 10:46:42;;;;;;;23.20;20.20;;;14.80;82.10;;;;;;6154035;23;20012;-83
2021/05/14 10:49:16;;;;;;;23.95;20.65;;;14.90;82.10;;;;;;6154049;23;20009;-84
2021/05/14 10:51:59;;;;;;;22.63;20.00;;;15.00;81.70;;;;;;6128424;23;20336;-81
2021/05/14 10:54:48;;;;;;;24.92;21.02;;;15.10;81.50;;;;;;6153346;23;20006;-82
2021/05/14 10:57:37;;;;;;;21.70;18.80;;;15.20;82.50;;;;;;6153001;23;20018;-83
2021/05/14 11:00:29;;;;;;;20.52;18.33;;;15.20;80.50;;;;;;6151994;23;20542;-83
2021/05/14 11:03:12;;;;;;;19.55;17.50;;;15.30;79.80;;;;;;6152782;23;20028;-82
2021/05/14 11:05:42;;;;;;;20.05;17.88;;;15.30;78.60;;;;;;6152130;23;20009;-84
2021/05/14 11:08:38;;;;;;;22.35;18.00;;;15.30;79.00;;;;;;6128805;23;20037;-85
2021/05/14 11:11:09;;;;;;;21.10;16.58;;;15.40;80.30;;;;;;6154500;23;20792;-82
2021/05/14 11:13:47;;;;;;;18.42;16.52;;;15.50;81.20;;;;;;6154724;23;20009;-82
2021/05/14 11:16:44;;;;;;;18.80;16.80;;;15.50;80.50;;;;;;6153396;23;20041;-86
2021/05/14 11:19:30;;;;;;;20.40;18.17;;;15.60;79.60;;;;;;6153235;23;20002;-82
2021/05/14 11:22:26;;;;;;;18.85;16.55;;;15.60;76.70;;;;;;6153937;23;20009;-83
2021/05/14 11:25:13;;;;;;;;;;;;;;;;;;;;;
2021/05/14 11:27:42;;;;;;;17.63;15.75;;;15.50;76.10;;;;;;6154887;23;20364;-83
2021/05/14 11:30:19;;;;;;;16.55;14.85;;;15.50;77.00;;;;;;6153687;23;20049;-83
2021/05/14 11:32:47;;;;;;;17.35;14.48;;;15.60;77.10;;;;;;6153717;23;20002;-84
2021/05/14 11:35:16;;;;;;;15.43;13.45;;;15.50;78.30;;;;;;6152944;23;20084;-83
2021/05/14 11:38:21;;;;;;;14.35;11.98;;;15.60;78.90;;;;;;6154419;23;20014;-82
2021/05/14 11:40:57;;;;;;;12.57;11.18;;;15.70;78.40;;;;;;6154950;23;20001;-82
2021/05/14 11:43:25;;;;;;;13.52;12.02;;;15.80;77.70;;;;;;6154967;23;20004;-83
2021/05/14 11:45:51;;;;;;;12.32;11.02;;;15.90;77.00;;;;;;6155060;23;20006;-81
2021/05/14 11:48:21;;;;;;;14.20;10.98;;;15.90;77.20;;;;;;6154761;23;20008;-82
2021/05/14 11:50:58;;;;;;;12.52;10.65;;;15.90;76.10;;;;;;6153777;23;20013;-81
2021/05/14 11:53:34;;;;;;;12.02;10.18;;;16.00;75.50;;;;;;6153156;23;20051;-81
2021/05/14 11:56:20;;;;;;;11.48;10.25;;;15.90;75.20;;;;;;6153225;23;20021;-83
2021/05/14 11:58:56;;;;;;;10.45;8.52;;;15.90;74.00;;;;;;6154689;23;19998;-82
2021/05/14 12:01:41;;;;;;;9.57;8.68;;;15.80;73.40;;;;;;6154183;23;20041;-82
2021/05/14 12:04:09;;;;;;;9.88;8.10;;;15.80;75.90;;;;;;6154506;23;20005;-81
2021/05/14 12:06:46;;;;;;;9.48;8.00;;;15.80;76.70;;;;;;6154097;23;20037;-82
2021/05/14 12:09:18;;;;;;;8.38;7.55;;;15.90;75.90;;;;;;6154336;23;20005;-82
2021/05/14 12:11:47;;;;;;;8.85;7.95;;;15.90;76.20;;;;;;6154192;23;20277;-82
2021/05/14 12:14:44;;;;;;;10.13;8.63;;;16.00;75.20;;;;;;6154554;23;20013;-82
2021/05/14 12:17:35;;;;;;;8.82;7.93;;;16.00;72.90;;;;;;6155418;23;20045;-82
2021/05/14 12:20:20;;;;;;;9.48;7.43;;;16.00;73.50;;;;;;6154410;23;20002;-82
2021/05/14 12:22:58;;;;;;;8.50;7.22;;;16.00;72.80;;;;;;6155592;23;20002;-82
2021/05/14 12:25:49;;;;;;;8.23;7.22;;;16.10;71.40;;;;;;6153153;23;20052;-84
2021/05/14 12:31:38;;;;;;;8.35;6.70;;;16.00;70.20;;;;;;6145687;23;20012;-85
2021/05/14 12:34:13;;;;;;;8.43;6.65;;;15.90;70.70;;;;;;6153937;23;20002;-88
2021/05/14 12:36:45;;;;;;;6.57;5.90;;;15.90;72.10;;;;;;6129790;23;20022;-83
2021/05/14 12:39:25;;;;;;;6.97;5.57;;;15.90;72.20;;;;;;6153556;23;20439;-84
2021/05/14 12:41:55;;;;;;;5.90;5.30;;;15.90;71.60;;;;;;6153825;23;20010;-86
2021/05/14 12:44:33;;;;;;;6.95;4.90;;;15.90;72.10;;;;;;6156852;23;20037;-86
2021/05/14 12:47:10;;;;;;;6.80;6.13;;;15.90;72.50;;;;;;6153404;23;20099;-83
2021/05/14 12:50:03;;;;;;;6.97;4.95;;;16.00;70.50;;;;;;6152048;23;20001;-87
2021/05/14 12:52:39;;;;;;;5.55;4.82;;;15.90;70.90;;;;;;6153912;23;20064;-82
2021/05/14 12:55:59;;;;;;;4.97;4.47;;;15.90;72.00;;;;;;6154731;23;20357;-85
2021/05/14 12:58:06;;;;;;;;;;;15.90;72.90;;;;;;6148008;23;20072;-83
2021/05/14 13:00:37;;;;;;;4.90;4.30;;;16.00;73.60;;;;;;6128076;23;20275;-82
2021/05/14 13:03:09;;;;;;;4.68;4.20;;;16.00;73.70;;;;;;6151097;23;20446;-82
2021/05/14 13:05:54;;;;;;;4.72;4.18;;;16.10;74.50;;;;;;6153323;23;20005;-84
2021/05/14 13:08:26;;;;;;;6.25;5.10;;;16.10;72.70;;;;;;6152722;23;20037;-84
2021/05/14 13:11:04;;;;;;;5.97;4.70;;;16.10;69.40;;;;;;6151435;23;20006;-81
2021/05/14 13:13:31;;;;;;;6.38;5.10;;;16.20;68.70;;;;;;6153256;23;20002;-81
2021/05/14 13:16:14;;;;;;;4.88;4.18;;;16.20;67.30;;;;;;6152745;23;20339;-87
2021/05/14 13:18:45;;;;;;;5.22;4.20;;;16.20;67.80;;;;;;6153350;23;20021;-83
2021/05/14 13:21:12;;;;;;;4.70;4.30;;;16.20;68.90;;;;;;6105586;23;20005;-82
2021/05/14 13:23:42;;;;;;;7.03;4.55;;;16.30;69.20;;;;;;6129637;23;20008;-83
2021/05/14 13:26:15;;;;;;;5.13;4.20;;;16.40;68.80;;;;;;6153550;23;20037;-82
2021/05/14 13:28:45;;;;;;;4.75;3.97;;;16.50;67.90;;;;;;6154038;23;20385;-83
2021/05/14 13:31:14;;;;;;;4.82;3.63;;;16.50;67.50;;;;;;6153427;23;20009;-82
2021/05/14 13:33:42;;;;;;;4.93;4.35;;;16.60;66.00;;;;;;6153917;23;20002;-82
2021/05/14 13:36:18;;;;;;;5.25;4.32;;;16.60;65.00;;;;;;6150848;23;20017;-82
2021/05/14 13:38:45;;;;;;;6.25;4.57;;;16.60;64.10;;;;;;6130516;23;20096;-81
2021/05/14 13:41:11;;;;;;;4.10;3.65;;;16.60;64.60;;;;;;6152865;23;20006;-82
2021/05/14 13:43:37;;;;;;;4.80;4.30;;;16.60;65.20;;;;;;6150185;23;20009;-81
2021/05/14 13:46:03;;;;;;;4.80;4.30;;;16.50;65.70;;;;;;6150515;23;20436;-81
2021/05/14 13:48:29;;;;;;;5.03;3.30;;;16.50;66.80;;;;;;6128050;23;20297;-82
2021/05/14 13:50:59;;;;;;;3.72;3.00;;;16.50;67.40;;;;;;6153736;23;20004;-81
2021/05/14 13:53:27;;;;;;;5.03;3.35;;;16.40;67.90;;;;;;6155241;23;20005;-82
2021/05/14 13:56:17;;;;;;;4.72;3.60;;;16.40;67.30;;;;;;6152265;23;20036;-82
2021/05/14 13:58:46;;;;;;;4.47;4.00;;;16.40;67.00;;;;;;6153524;23;20005;-81
2021/05/14 14:01:17;;;;;;;4.03;3.40;;;16.30;66.00;;;;;;6151955;23;20040;-87
2021/05/14 14:03:46;;;;;;;;;;;16.30;66.90;;;;;;6153943;23;20005;-81
2021/05/14 14:06:14;;;;;;;3.70;2.78;;;16.30;68.00;;;;;;6151341;23;19901;-81
2021/05/14 14:08:43;;;;;;;8.07;4.13;;;16.30;68.90;;;;;;6151905;23;20008;-82
2021/05/14 14:11:08;;;;;;;5.00;3.58;;;16.40;69.80;;;;;;6153158;23;20001;-81
2021/05/14 14:13:38;;;;;;;3.38;3.05;;;16.30;70.30;;;;;;6155037;23;20006;-82
2021/05/14 14:16:05;;;;;;;3.20;2.80;;;16.30;70.10;;;;;;6152935;23;20436;-80
2021/05/14 14:18:30;;;;;;;4.72;3.15;;;16.30;68.50;;;;;;6128331;23;20611;-82
2021/05/14 14:20:56;;;;;;;3.13;2.67;;;16.40;68.80;;;;;;6151101;23;20092;-82
2021/05/14 14:23:22;;;;;;;4.88;3.13;;;16.40;67.50;;;;;;6128355;23;20015;-82
2021/05/14 14:25:48;;;;;;;4.15;3.55;;;16.40;66.20;;;;;;6154438;23;20048;-82
2021/05/14 14:28:15;;;;;;;4.18;3.50;;;16.50;64.70;;;;;;6152481;23;20008;-83
2021/05/14 14:30:43;;;;;;;3.42;2.80;;;16.60;63.70;;;;;;6126243;23;20058;-82
2021/05/14 14:33:09;;;;;;;2.47;2.25;;;16.70;63.50;;;;;;6151351;23;19997;-83
2021/05/14 14:35:35;;;;;;;4.03;2.35;;;16.80;62.20;;;;;;6127608;23;20002;-82
2021/05/14 14:38:01;;;;;;;2.83;2.35;;;16.80;61.50;;;;;;6153110;23;20006;-81
2021/05/14 14:40:28;;;;;;;3.35;2.70;;;16.80;62.80;;;;;;6152534;23;20028;-82
2021/05/14 14:43:12;;;;;;;4.95;3.60;;;16.90;62.70;;;;;;6150880;23;20009;-84
2021/05/14 14:46:08;;;;;;;4.60;3.53;;;16.90;61.40;;;;;;6132607;23;20006;-84
2021/05/14 14:48:33;;;;;;;5.07;3.38;;;16.90;61.30;;;;;;6153747;23;20025;-82
2021/05/14 14:51:08;;;;;;;4.70;3.30;;;17.00;61.30;;;;;;6153562;23;20471;-82
2021/05/14 14:53:34;;;;;;;4.28;3.60;;;17.00;61.20;;;;;;6151434;23;20001;-80
2021/05/14 14:56:00;;;;;;;4.95;3.92;;;17.10;59.30;;;;;;6151757;23;20435;-77
2021/05/14 14:58:27;;;;;;;5.88;3.60;;;17.10;59.30;;;;;;6154295;23;20009;-79
2021/05/14 15:00:53;;;;;;;5.03;3.60;;;17.00;59.70;;;;;;6152720;23;20044;-77
2021/05/14 15:03:19;;;;;;;4.13;3.00;;;17.00;61.50;;;;;;6153197;23;20428;-77
2021/05/14 15:05:49;;;;;;;5.03;3.60;;;16.90;61.10;;;;;;6154601;23;20002;-76
2021/05/14 15:08:15;;;;;;;5.05;3.38;;;17.00;59.60;;;;;;6152435;23;20005;-77
2021/05/14 15:10:41;;;;;;;3.85;3.10;;;17.00;58.90;;;;;;6128316;23;20013;-77
2021/05/14 15:13:07;;;;;;;4.82;3.17;;;17.00;58.80;;;;;;6152149;23;20017;-76
2021/05/14 15:15:33;;;;;;;2.90;2.65;;;17.00;60.50;;;;;;6152887;23;20009;-76
2021/05/14 15:18:01;;;;;;;4.00;3.10;;;17.00;62.10;;;;;;6102398;23;20005;-81
2021/05/14 15:20:28;;;;;;;6.10;3.30;;;16.90;63.60;;;;;;6103539;23;20013;-76
2021/05/14 15:22:58;;;;;;;4.78;2.67;;;17.00;64.50;;;;;;6128676;23;20061;-85
2021/05/14 15:25:24;;;;;;;3.67;2.50;;;17.00;62.70;;;;;;6129098;23;20006;-77
2021/05/14 15:27:50;;;;;;;4.35;3.20;;;17.00;61.80;;;;;;6154122;23;20321;-78
2021/05/14 15:30:17;;;;;;;4.65;3.47;;;17.00;59.10;;;;;;6127215;23;20029;-78
2021/05/14 15:32:42;;;;;;;5.70;3.17;;;17.00;57.80;;;;;;6152914;23;20013;-78
2021/05/14 15:35:09;;;;;;;3.10;2.50;;;17.00;59.50;;;;;;6151966;23;20301;-78
2021/05/14 15:37:35;;;;;;;3.47;2.90;;;17.00;60.80;;;;;;6128266;23;20013;-78
2021/05/14 15:40:04;;;;;;;3.65;3.00;;;17.00;60.80;;;;;;6151069;23;20017;-78
2021/05/14 15:54:45;;;;;;;;;;;;;;;;;;;;;
2021/05/14 16:38:37;;;;;;;;;;;;;;;;;;;;;
2021/05/14 17:27:10;;;;;;;;;;;;;;;;;;;;;
2021/05/14 20:15:38;;;;;;;;;;;;;;;;;;;;;
2021/05/14 20:26:21;;;;;;;;;;;;;;;;;;;;;
2021/05/14 20:55:58;;;;;;;;;;;;;;;;;;;;;
2021/05/14 21:35:50;;;;;;;;;;;;;;;;;;;;;
2021/05/14 21:39:23;;;;;;;;;;;;;;;;;;;;;
2021/05/14 21:45:51;;;;;;;13.15;8.48;;;12.70;84.40;;;;;;5849754;24;20080;-91
2021/05/14 22:00:02;;;;;;;;;;;;;;;;;;;;;
2021/05/14 22:10:20;;;;;;;;;;;;;;;;;;;;;
2021/05/14 22:13:46;;;;;;;;;;;;;;;;;;;;;
2021/05/14 22:20:35;;;;;;;;;;;;;;;;;;;;;
2021/05/14 22:31:09;;;;;;;;;;;;;;;;;;;;;
2021/05/14 22:49:08;;;;;;;;;;;;;;;;;;;;;
2021/05/14 22:55:35;;;;;;;;;;;;;;;;;;;;;
2021/05/14 22:58:49;;;;;;;;;;;;;;;;;;;;;
2021/05/14 23:02:20;;;;;;;17.50;10.75;;;12.50;87.10;;;;;;5843156;24;20085;-87
2021/05/14 23:09:44;;;;;;;13.40;11.05;;;12.40;87.20;;;;;;5779139;24;20391;-88
2021/05/14 23:26:54;;;;;;;;;;;;;;;;;;;;;
2021/05/14 23:30:21;;;;;;;;;;;;;;;;;;;;;
